| time (UTC) | temp C | wind direction | speed KPH | gust KPH | rain 1hr cm | rain 24hr cm | rain mn cm | humidity % | barometer mb |
| 20260507083004 | 17 | 16 | 11.3 | 29.0 | 0.00 | 0.00 | 0.00 | 67 | 1015.3 |
| 20260507082503 | 18 | 18 | 9.7 | 22.5 | 0.00 | 0.00 | 0.00 | 63 | 1015.2 |
| 20260507082004 | 18 | 14 | 9.7 | 22.5 | 0.00 | 0.00 | 0.00 | 68 | 1015.0 |
| 20260507081714 | 18 | 7 | 9.7 | 22.5 | 0.00 | 0.00 | 0.00 | 66 | 1014.9 |
| 20260507081003 | 20 | 321 | 8.0 | 16.1 | 0.00 | 0.00 | 0.00 | 52 | 1014.9 |
| 20260507080503 | 19 | 296 | 9.7 | 20.9 | 0.00 | 0.00 | 0.00 | 52 | 1014.6 |
| 20260507080004 | 19 | 296 | 11.3 | 20.9 | 0.00 | 0.00 | 0.00 | 52 | 1014.8 |
| 20260507075714 | 19 | 297 | 11.3 | 20.9 | 0.00 | 0.00 | 0.00 | 54 | 1014.6 |
| 20260507075003 | 19 | 295 | 11.3 | 20.9 | 0.00 | 0.00 | 0.00 | 55 | 1014.6 |
| 20260507074504 | 18 | 303 | 11.3 | 17.7 | 0.00 | 0.00 | 0.00 | 56 | 1014.7 |
| 20260507074003 | 18 | 302 | 9.7 | 17.7 | 0.00 | 0.00 | 0.00 | 57 | 1014.5 |
| 20260507073503 | 18 | 317 | 8.0 | 17.7 | 0.00 | 0.00 | 0.00 | 56 | 1014.6 |
| 20260507073005 | 18 | 317 | 6.4 | 14.5 | 0.00 | 0.00 | 0.00 | 57 | 1014.8 |
| 20260507072503 | 18 | 328 | 6.4 | 12.9 | 0.00 | 0.00 | 0.00 | 57 | 1014.8 |
| 20260507072003 | 18 | 341 | 4.8 | 12.9 | 0.00 | 0.03 | 0.00 | 61 | 1014.7 |
| 20260507071503 | 18 | 305 | 1.6 | 8.0 | 0.00 | 0.03 | 0.00 | 59 | 1014.6 |
| 20260507071213 | 18 | 304 | 3.2 | 8.0 | 0.00 | 0.03 | 0.00 | 59 | 1014.9 |
| 20260507070714 | 19 | 307 | 3.2 | 8.0 | 0.00 | 0.03 | 0.00 | 58 | 1014.7 |
| 20260507070007 | 19 | 291 | 1.6 | 4.8 | 0.00 | 0.03 | 0.00 | 58 | 1014.8 |
| 20260507065503 | 19 | 296 | 1.6 | 4.8 | 0.00 | 0.03 | 0.00 | 60 | 1014.8 |
| 20260507065003 | 18 | 30 | 3.2 | 8.0 | 0.00 | 0.03 | 0.00 | 64 | 1014.7 |
| 20260507064503 | 18 | 53 | 4.8 | 9.7 | 0.00 | 0.03 | 0.00 | 67 | 1014.8 |
| 20260507064004 | 17 | 70 | 4.8 | 9.7 | 0.00 | 0.03 | 0.00 | 70 | 1014.9 |
| 20260507063716 | 17 | 69 | 4.8 | 9.7 | 0.00 | 0.03 | 0.00 | 72 | 1014.7 |
| 20260507063005 | 16 | 52 | 4.8 | 9.7 | 0.00 | 0.03 | 0.00 | 74 | 1014.8 |
| 20260507062503 | 17 | 29 | 4.8 | 9.7 | 0.00 | 0.03 | 0.00 | 75 | 1014.7 |
| 20260507062003 | 17 | 2 | 4.8 | 9.7 | 0.00 | 0.03 | 0.00 | 75 | 1014.7 |
| 20260507061503 | 17 | 340 | 4.8 | 9.7 | 0.00 | 0.03 | 0.00 | 76 | 1014.7 |
| 20260507061003 | 17 | 333 | 3.2 | 9.7 | 0.00 | 0.03 | 0.00 | 76 | 1014.8 |
| 20260507060503 | 16 | 356 | 3.2 | 9.7 | 0.00 | 0.03 | 0.00 | 76 | 1014.8 |
| 20260507060003 | 16 | 116 | 4.8 | 12.9 | 0.00 | 0.03 | 0.00 | 80 | 1014.6 |
| 20260507055503 | 15 | 122 | 6.4 | 12.9 | 0.00 | 0.03 | 0.00 | 83 | 1014.6 |
| 20260507055003 | 16 | 121 | 4.8 | 12.9 | 0.00 | 0.03 | 0.00 | 81 | 1014.7 |
| 20260507054503 | 16 | 193 | 4.8 | 12.9 | 0.00 | 0.03 | 0.00 | 81 | 1014.7 |
| 20260507054003 | 15 | 228 | 8.0 | 16.1 | 0.00 | 0.03 | 0.00 | 80 | 1014.4 |
| 20260507053504 | 15 | 232 | 9.7 | 16.1 | 0.00 | 0.03 | 0.00 | 82 | 1014.3 |
| 20260507053003 | 15 | 237 | 8.0 | 14.5 | 0.00 | 0.03 | 0.00 | 84 | 1014.4 |
| 20260507052505 | 15 | 264 | 6.4 | 14.5 | 0.00 | 0.03 | 0.00 | 86 | 1014.2 |
| 20260507052005 | 15 | 297 | 4.8 | 11.3 | 0.00 | 0.03 | 0.00 | 87 | 1014.5 |
| 20260507051715 | 15 | 309 | 4.8 | 11.3 | 0.00 | 0.03 | 0.00 | 86 | 1014.3 |
| 20260507051003 | 15 | 305 | 3.2 | 8.0 | 0.00 | 0.03 | 0.00 | 86 | 1014.1 |
| 20260507050503 | 15 | 359 | 1.6 | 6.4 | 0.00 | 0.03 | 0.00 | 85 | 1014.4 |
| 20260507050003 | 15 | 8 | 3.2 | 6.4 | 0.00 | 0.03 | 0.00 | 85 | 1014.3 |
| 20260507045504 | 15 | 344 | 3.2 | 8.0 | 0.00 | 0.03 | 0.00 | 86 | 1013.9 |
| 20260507045214 | 15 | 343 | 4.8 | 9.7 | 0.00 | 0.03 | 0.00 | 86 | 1014.0 |
| 20260507044506 | 16 | 309 | 3.2 | 9.7 | 0.00 | 0.05 | 0.00 | 86 | 1013.8 |
| 20260507044004 | 15 | 195 | 3.2 | 9.7 | 0.00 | 0.08 | 0.00 | 85 | 1013.8 |
| 20260507043713 | 15 | 172 | 4.8 | 11.3 | 0.00 | 0.08 | 0.00 | 85 | 1013.6 |
| 20260507043005 | 15 | 170 | 9.7 | 14.5 | 0.00 | 0.10 | 0.00 | 87 | 1013.6 |
| 20260507042503 | 15 | 172 | 9.7 | 14.5 | 0.00 | 0.10 | 0.00 | 87 | 1013.6 |
| 20260507042003 | 15 | 169 | 9.7 | 14.5 | 0.00 | 0.13 | 0.00 | 87 | 1013.9 |
| 20260507041503 | 15 | 166 | 9.7 | 14.5 | 0.00 | 0.13 | 0.00 | 87 | 1013.8 |
| 20260507041003 | 15 | 166 | 9.7 | 16.1 | 0.00 | 0.13 | 0.00 | 86 | 1013.7 |
| 20260507040713 | 15 | 166 | 9.7 | 16.1 | 0.00 | 0.13 | 0.00 | 86 | 1013.6 |
| 20260507040008 | 15 | 159 | 8.0 | 16.1 | 0.00 | 0.13 | 0.00 | 86 | 1013.5 |
| 20260507035713 | 15 | 152 | 8.0 | 12.9 | 0.00 | 0.13 | 0.00 | 86 | 1013.5 |
| 20260507035004 | 15 | 148 | 8.0 | 12.9 | 0.00 | 0.13 | 0.00 | 85 | 1013.5 |
| 20260507034503 | 15 | 168 | 8.0 | 14.5 | 0.00 | 0.13 | 0.00 | 85 | 1013.4 |
| 20260507034003 | 15 | 166 | 8.0 | 14.5 | 0.00 | 0.13 | 0.00 | 85 | 1013.3 |
| 20260507033504 | 15 | 155 | 9.7 | 14.5 | 0.00 | 0.13 | 0.00 | 88 | 1013.4 |
| 20260507033003 | 15 | 160 | 11.3 | 16.1 | 0.00 | 0.13 | 0.00 | 88 | 1013.4 |
| 20260507032503 | 15 | 160 | 11.3 | 16.1 | 0.00 | 0.13 | 0.00 | 88 | 1013.6 |
| 20260507032004 | 15 | 156 | 9.7 | 16.1 | 0.00 | 0.13 | 0.00 | 88 | 1013.4 |
| 20260507031713 | 15 | 160 | 9.7 | 16.1 | 0.00 | 0.13 | 0.00 | 88 | 1013.5 |
| 20260507031003 | 15 | 158 | 9.7 | 16.1 | 0.00 | 0.13 | 0.00 | 87 | 1013.6 |
| 20260507030713 | 15 | 155 | 8.0 | 16.1 | 0.00 | 0.13 | 0.00 | 86 | 1013.4 |
| 20260507030003 | 15 | 166 | 4.8 | 8.0 | 0.00 | 0.13 | 0.00 | 83 | 1013.4 |
| 20260507025712 | 15 | 191 | 3.2 | 9.7 | 0.00 | 0.13 | 0.00 | 83 | 1013.5 |
| 20260507025005 | 15 | 349 | 1.6 | 9.7 | 0.00 | 0.13 | 0.00 | 83 | 1013.5 |
| 20260507024503 | 15 | 152 | 1.6 | 8.0 | 0.00 | 0.13 | 0.00 | 82 | 1013.4 |
| 20260507024004 | 15 | 139 | 3.2 | 6.4 | 0.00 | 0.13 | 0.00 | 81 | 1013.5 |
| 20260507023503 | 16 | 120 | 1.6 | 6.4 | 0.00 | 0.13 | 0.00 | 82 | 1013.4 |
| 20260507023213 | 16 | 346 | 3.2 | 9.7 | 0.00 | 0.13 | 0.00 | 81 | 1013.4 |
| 20260507022503 | 16 | 308 | 3.2 | 9.7 | 0.00 | 0.13 | 0.00 | 80 | 1013.4 |
| 20260507022003 | 16 | 339 | 3.2 | 9.7 | 0.00 | 0.13 | 0.00 | 80 | 1013.4 |
| 20260507021503 | 16 | 360 | 6.4 | 9.7 | 0.00 | 0.13 | 0.00 | 78 | 1013.4 |
| 20260507021005 | 16 | 8 | 4.8 | 9.7 | 0.00 | 0.13 | 0.00 | 79 | 1013.5 |
| 20260507020503 | 16 | 15 | 3.2 | 9.7 | 0.00 | 0.13 | 0.00 | 80 | 1013.5 |
| 20260507020003 | 16 | 350 | 4.8 | 14.5 | 0.00 | 0.13 | 0.00 | 80 | 1013.4 |
| 20260507015503 | 16 | 337 | 4.8 | 14.5 | 0.00 | 0.13 | 0.00 | 81 | 1013.5 |
| 20260507015005 | 16 | 151 | 1.6 | 9.7 | 0.00 | 0.13 | 0.00 | 80 | 1013.5 |
| 20260507014714 | 16 | 100 | 1.6 | 8.0 | 0.00 | 0.13 | 0.00 | 81 | 1013.3 |
| 20260507014003 | 16 | 56 | 3.2 | 8.0 | 0.00 | 0.13 | 0.00 | 81 | 1013.3 |
| 20260507013503 | 16 | 84 | 1.6 | 8.0 | 0.00 | 0.13 | 0.00 | 81 | 1013.5 |
| 20260507013003 | 16 | 90 | 3.2 | 9.7 | 0.00 | 0.13 | 0.00 | 80 | 1013.4 |
| 20260507012503 | 16 | 113 | 4.8 | 9.7 | 0.00 | 0.13 | 0.00 | 80 | 1013.4 |
| 20260507012215 | 16 | 94 | 4.8 | 9.7 | 0.00 | 0.13 | 0.00 | 80 | 1013.5 |
| 20260507011503 | 16 | 356 | 4.8 | 9.7 | 0.00 | 0.13 | 0.00 | 79 | 1013.5 |
| 20260507011213 | 16 | 4 | 4.8 | 14.5 | 0.00 | 0.13 | 0.00 | 79 | 1013.3 |
| 20260507010503 | 16 | 14 | 8.0 | 16.1 | 0.00 | 0.13 | 0.00 | 79 | 1013.4 |
| 20260507010213 | 16 | 12 | 6.4 | 16.1 | 0.00 | 0.13 | 0.00 | 79 | 1013.3 |
| 20260507005505 | 17 | 55 | 3.2 | 8.0 | 0.00 | 0.13 | 0.00 | 77 | 1013.3 |
| 20260507005005 | 17 | 43 | 3.2 | 8.0 | 0.00 | 0.13 | 0.00 | 76 | 1013.4 |
| 20260507004503 | 17 | 2 | 3.2 | 8.0 | 0.00 | 0.13 | 0.00 | 75 | 1013.3 |
| 20260507004005 | 17 | 69 | 4.8 | 9.7 | 0.00 | 0.13 | 0.00 | 75 | 1013.4 |
| 20260507003503 | 17 | 44 | 4.8 | 9.7 | 0.00 | 0.13 | 0.00 | 75 | 1013.5 |
| 20260507003004 | 17 | 13 | 3.2 | 9.7 | 0.00 | 0.13 | 0.00 | 73 | 1013.3 |
| 20260507002503 | 17 | 12 | 3.2 | 12.9 | 0.00 | 0.13 | 0.00 | 74 | 1013.5 |
| 20260507002004 | 17 | 357 | 4.8 | 12.9 | 0.00 | 0.13 | 0.00 | 73 | 1013.5 |
| 20260507001503 | 17 | 357 | 4.8 | 12.9 | 0.00 | 0.13 | 0.00 | 73 | 1013.3 |
| 20260507001005 | 17 | 348 | 4.8 | 19.3 | 0.00 | 0.13 | 0.00 | 73 | 1013.6 |
| 20260507000503 | 17 | 343 | 6.4 | 19.3 | 0.00 | 0.13 | 0.00 | 72 | 1013.6 |
| 20260507000003 | 17 | 326 | 8.0 | 17.7 | 0.00 | 0.13 | 0.00 | 72 | 1013.5 |
| 20260506235503 | 17 | 277 | 8.0 | 17.7 | 0.00 | 0.13 | 0.00 | 70 | 1013.4 |
| 20260506235212 | 18 | 237 | 6.4 | 11.3 | 0.00 | 0.13 | 0.00 | 67 | 1013.4 |
| 20260506234505 | 18 | 244 | 8.0 | 14.5 | 0.00 | 0.13 | 0.00 | 65 | 1013.4 |
| 20260506234003 | 18 | 275 | 9.7 | 19.3 | 0.00 | 0.13 | 0.00 | 66 | 1013.2 |
| 20260506233503 | 18 | 292 | 8.0 | 19.3 | 0.00 | 0.13 | 0.00 | 67 | 1013.3 |
| 20260506233003 | 17 | 248 | 9.7 | 17.7 | 0.00 | 0.13 | 0.00 | 69 | 1013.5 |
| 20260506232503 | 17 | 201 | 11.3 | 20.9 | 0.00 | 0.13 | 0.00 | 70 | 1013.3 |
| 20260506232214 | 17 | 193 | 12.9 | 20.9 | 0.00 | 0.13 | 0.00 | 70 | 1013.4 |
| 20260506231713 | 17 | 184 | 16.1 | 20.9 | 0.00 | 0.13 | 0.00 | 71 | 1013.3 |
| 20260506231005 | 17 | 181 | 19.3 | 32.2 | 0.00 | 0.13 | 0.00 | 71 | 1013.0 |
| 20260506230503 | 18 | 181 | 24.1 | 32.2 | 0.00 | 0.13 | 0.00 | 69 | 1013.0 |
| 20260506230003 | 17 | 180 | 25.7 | 30.6 | 0.00 | 0.13 | 0.00 | 69 | 1013.3 |
| 20260506225503 | 18 | 183 | 24.1 | 30.6 | 0.00 | 0.13 | 0.00 | 69 | 1013.3 |
| 20260506225003 | 17 | 183 | 22.5 | 30.6 | 0.00 | 0.13 | 0.00 | 70 | 1013.2 |
| 20260506224503 | 17 | 181 | 22.5 | 35.4 | 0.00 | 0.13 | 0.00 | 70 | 1013.3 |
| 20260506224003 | 18 | 184 | 25.7 | 35.4 | 0.00 | 0.13 | 0.00 | 69 | 1013.4 |
| 20260506223503 | 18 | 184 | 22.5 | 35.4 | 0.00 | 0.13 | 0.00 | 68 | 1013.2 |
| 20260506223003 | 17 | 183 | 20.9 | 30.6 | 0.00 | 0.13 | 0.00 | 71 | 1013.3 |
| 20260506222503 | 17 | 177 | 20.9 | 27.4 | 0.00 | 0.13 | 0.00 | 71 | 1013.3 |
| 20260506222214 | 17 | 175 | 19.3 | 27.4 | 0.00 | 0.13 | 0.00 | 71 | 1013.4 |
| 20260506221504 | 17 | 181 | 17.7 | 22.5 | 0.00 | 0.13 | 0.00 | 71 | 1013.4 |
| 20260506221214 | 17 | 182 | 17.7 | 22.5 | 0.00 | 0.13 | 0.00 | 70 | 1013.5 |
| 20260506220504 | 17 | 180 | 16.1 | 22.5 | 0.00 | 0.13 | 0.00 | 70 | 1013.5 |
| 20260506220216 | 17 | 178 | 14.5 | 20.9 | 0.00 | 0.13 | 0.00 | 71 | 1013.3 |
| 20260506215713 | 17 | 172 | 14.5 | 19.3 | 0.00 | 0.13 | 0.13 | 72 | 1013.2 |
| 20260506215006 | 17 | 169 | 12.9 | 19.3 | 0.00 | 0.13 | 0.13 | 72 | 1013.3 |
| 20260506214503 | 17 | 171 | 12.9 | 19.3 | 0.00 | 0.13 | 0.13 | 73 | 1013.2 |
| 20260506214006 | 16 | 161 | 11.3 | 16.1 | 0.00 | 0.13 | 0.13 | 76 | 1013.4 |
| 20260506213503 | 16 | 157 | 11.3 | 14.5 | 0.00 | 0.13 | 0.13 | 79 | 1013.3 |
| 20260506213005 | 17 | 155 | 11.3 | 14.5 | 0.00 | 0.13 | 0.13 | 77 | 1013.4 |
| 20260506212503 | 17 | 153 | 11.3 | 14.5 | 0.00 | 0.13 | 0.13 | 75 | 1013.3 |
| 20260506212003 | 17 | 153 | 11.3 | 16.1 | 0.00 | 0.15 | 0.13 | 75 | 1013.3 |
| 20260506211503 | 17 | 148 | 8.0 | 16.1 | 0.00 | 0.18 | 0.13 | 75 | 1013.4 |
| 20260506211003 | 17 | 133 | 3.2 | 11.3 | 0.00 | 0.18 | 0.13 | 76 | 1013.5 |
| 20260506210503 | 17 | 57 | 1.6 | 4.8 | 0.00 | 0.18 | 0.13 | 76 | 1013.4 |
| 20260506210003 | 17 | 348 | 1.6 | 3.2 | 0.00 | 0.20 | 0.13 | 76 | 1013.5 |
| 20260506205503 | 17 | 13 | 3.2 | 6.4 | 0.00 | 0.23 | 0.13 | 76 | 1013.5 |
| 20260506205003 | 17 | 50 | 3.2 | 6.4 | 0.00 | 0.28 | 0.13 | 75 | 1013.4 |
| 20260506204714 | 17 | 72 | 3.2 | 6.4 | 0.00 | 0.30 | 0.13 | 75 | 1013.4 |
| 20260506204213 | 17 | 70 | 3.2 | 9.7 | 0.00 | 0.36 | 0.13 | 75 | 1013.3 |
| 20260506203503 | 17 | 64 | 4.8 | 9.7 | 0.00 | 0.41 | 0.13 | 74 | 1013.4 |
| 20260506203003 | 17 | 56 | 4.8 | 9.7 | 0.00 | 0.41 | 0.13 | 75 | 1013.3 |
| 20260506202503 | 17 | 38 | 6.4 | 8.0 | 0.00 | 0.41 | 0.13 | 74 | 1013.4 |
| 20260506202003 | 18 | 17 | 6.4 | 9.7 | 0.00 | 0.41 | 0.13 | 74 | 1013.3 |
| 20260506201714 | 18 | 10 | 6.4 | 9.7 | 0.00 | 0.43 | 0.13 | 73 | 1013.2 |
| 20260506201003 | 18 | 12 | 4.8 | 9.7 | 0.00 | 0.43 | 0.13 | 74 | 1013.5 |
| 20260506200503 | 18 | 2 | 4.8 | 9.7 | 0.00 | 0.46 | 0.13 | 74 | 1013.1 |
| 20260506200003 | 18 | 5 | 3.2 | 6.4 | 0.00 | 0.48 | 0.13 | 73 | 1013.2 |
| 20260506195503 | 18 | 14 | 4.8 | 9.7 | 0.00 | 0.48 | 0.13 | 73 | 1013.3 |
| 20260506195004 | 18 | 12 | 6.4 | 9.7 | 0.00 | 0.51 | 0.13 | 73 | 1013.2 |
| 20260506194505 | 18 | 7 | 6.4 | 11.3 | 0.00 | 0.53 | 0.13 | 73 | 1013.1 |
| 20260506194213 | 18 | 3 | 6.4 | 11.3 | 0.00 | 0.53 | 0.13 | 73 | 1013.0 |
| 20260506193505 | 18 | 18 | 4.8 | 11.3 | 0.00 | 0.53 | 0.13 | 73 | 1013.0 |
| 20260506193004 | 18 | 11 | 4.8 | 11.3 | 0.00 | 0.56 | 0.13 | 73 | 1012.8 |
| 20260506192503 | 18 | 3 | 4.8 | 11.3 | 0.00 | 0.56 | 0.13 | 73 | 1013.0 |
| 20260506192003 | 18 | 8 | 4.8 | 11.3 | 0.00 | 0.56 | 0.13 | 73 | 1012.9 |
| 20260506191503 | 18 | 356 | 6.4 | 11.3 | 0.00 | 0.56 | 0.13 | 73 | 1012.9 |
| 20260506191003 | 18 | 356 | 8.0 | 14.5 | 0.00 | 0.56 | 0.13 | 73 | 1012.8 |
| 20260506190505 | 18 | 3 | 9.7 | 16.1 | 0.00 | 0.56 | 0.13 | 73 | 1012.7 |
| 20260506190003 | 18 | 358 | 9.7 | 16.1 | 0.00 | 0.56 | 0.13 | 72 | 1012.5 |
| 20260506185503 | 18 | 358 | 9.7 | 20.9 | 0.00 | 0.56 | 0.13 | 71 | 1012.6 |
| 20260506185003 | 18 | 359 | 12.9 | 22.5 | 0.00 | 0.56 | 0.13 | 71 | 1012.4 |
| 20260506184713 | 18 | 360 | 14.5 | 22.5 | 0.00 | 0.56 | 0.13 | 70 | 1012.4 |
| 20260506184003 | 18 | 352 | 16.1 | 27.4 | 0.00 | 0.61 | 0.13 | 69 | 1012.3 |
| 20260506183713 | 18 | 346 | 16.1 | 27.4 | 0.00 | 0.64 | 0.13 | 69 | 1012.2 |
| 20260506183003 | 20 | 328 | 12.9 | 25.7 | 0.00 | 0.69 | 0.13 | 65 | 1012.2 |
| 20260506182505 | 20 | 303 | 8.0 | 17.7 | 0.00 | 0.74 | 0.13 | 64 | 1011.9 |
| 20260506182003 | 20 | 222 | 6.4 | 12.9 | 0.00 | 0.81 | 0.13 | 63 | 1011.8 |
| 20260506181503 | 20 | 199 | 9.7 | 20.9 | 0.00 | 0.84 | 0.13 | 63 | 1011.8 |
| 20260506181003 | 20 | 206 | 14.5 | 20.9 | 0.00 | 0.89 | 0.13 | 62 | 1011.7 |
| 20260506180503 | 20 | 210 | 12.9 | 20.9 | 0.00 | 0.97 | 0.13 | 62 | 1011.8 |
| 20260506180214 | 20 | 201 | 12.9 | 19.3 | 0.00 | 0.99 | 0.13 | 62 | 1011.6 |
| 20260506175503 | 20 | 191 | 12.9 | 22.5 | 0.00 | 1.07 | 0.13 | 62 | 1011.7 |
| 20260506175005 | 20 | 194 | 12.9 | 22.5 | 0.00 | 1.09 | 0.13 | 61 | 1011.5 |
| 20260506174505 | 20 | 193 | 11.3 | 17.7 | 0.00 | 1.14 | 0.13 | 61 | 1011.6 |
| 20260506174003 | 20 | 184 | 11.3 | 29.0 | 0.00 | 1.17 | 0.13 | 61 | 1011.6 |
| 20260506173503 | 20 | 186 | 12.9 | 29.0 | 0.00 | 1.19 | 0.13 | 60 | 1011.4 |
| 20260506173003 | 20 | 189 | 12.9 | 20.9 | 0.00 | 1.22 | 0.13 | 60 | 1011.3 |
| 20260506172503 | 21 | 178 | 14.5 | 27.4 | 0.00 | 1.22 | 0.13 | 59 | 1011.3 |
| 20260506172003 | 21 | 180 | 19.3 | 30.6 | 0.00 | 1.24 | 0.13 | 59 | 1011.2 |
| 20260506171503 | 21 | 184 | 20.9 | 30.6 | 0.00 | 1.24 | 0.13 | 59 | 1011.3 |
| 20260506171005 | 21 | 182 | 20.9 | 32.2 | 0.00 | 1.24 | 0.13 | 58 | 1011.2 |
| 20260506170503 | 21 | 179 | 16.1 | 32.2 | 0.00 | 1.24 | 0.13 | 58 | 1011.1 |
| 20260506170004 | 21 | 175 | 14.5 | 29.0 | 0.00 | 1.24 | 0.13 | 58 | 1011.0 |
| 20260506165505 | 21 | 188 | 19.3 | 32.2 | 0.00 | 1.27 | 0.13 | 58 | 1011.0 |
| 20260506165003 | 21 | 197 | 20.9 | 32.2 | 0.00 | 1.27 | 0.13 | 57 | 1010.8 |
| 20260506164503 | 21 | 189 | 19.3 | 32.2 | 0.00 | 1.27 | 0.13 | 57 | 1011.1 |
| 20260506164003 | 21 | 189 | 17.7 | 32.2 | 0.00 | 1.27 | 0.13 | 57 | 1011.2 |
| 20260506163504 | 21 | 184 | 19.3 | 32.2 | 0.00 | 1.27 | 0.13 | 57 | 1011.1 |
| 20260506163003 | 21 | 181 | 19.3 | 32.2 | 0.00 | 1.27 | 0.13 | 56 | 1011.1 |
| 20260506162503 | 21 | 188 | 16.1 | 29.0 | 0.00 | 1.27 | 0.13 | 55 | 1011.3 |
| 20260506162213 | 21 | 185 | 17.7 | 30.6 | 0.00 | 1.27 | 0.13 | 56 | 1011.1 |
| 20260506161503 | 21 | 179 | 22.5 | 41.8 | 0.00 | 1.27 | 0.13 | 54 | 1011.2 |
| 20260506161003 | 21 | 177 | 24.1 | 41.8 | 0.00 | 1.27 | 0.13 | 54 | 1011.2 |
| 20260506160712 | 21 | 171 | 22.5 | 35.4 | 0.00 | 1.27 | 0.13 | 54 | 1011.2 |
| 20260506160003 | 21 | 172 | 20.9 | 33.8 | 0.00 | 1.27 | 0.13 | 55 | 1011.3 |
| 20260506155503 | 21 | 180 | 25.7 | 40.2 | 0.00 | 1.27 | 0.13 | 55 | 1011.0 |
| 20260506155003 | 22 | 179 | 25.7 | 40.2 | 0.00 | 1.27 | 0.13 | 54 | 1011.2 |
| 20260506154714 | 22 | 169 | 22.5 | 37.0 | 0.00 | 1.27 | 0.13 | 54 | 1011.2 |
| 20260506154003 | 22 | 172 | 20.9 | 32.2 | 0.00 | 1.27 | 0.13 | 54 | 1011.1 |
| 20260506153503 | 22 | 179 | 24.1 | 35.4 | 0.00 | 1.27 | 0.13 | 53 | 1011.1 |
| 20260506153003 | 22 | 175 | 22.5 | 35.4 | 0.00 | 1.27 | 0.13 | 53 | 1011.1 |
| 20260506152504 | 22 | 172 | 22.5 | 35.4 | 0.00 | 1.27 | 0.13 | 53 | 1011.1 |
| 20260506152004 | 22 | 172 | 22.5 | 30.6 | 0.00 | 1.27 | 0.13 | 55 | 1011.2 |
| 20260506151503 | 22 | 174 | 19.3 | 30.6 | 0.00 | 1.27 | 0.13 | 55 | 1011.2 |
| 20260506151003 | 21 | 177 | 17.7 | 30.6 | 0.00 | 1.27 | 0.13 | 55 | 1011.2 |
| 20260506150503 | 21 | 173 | 19.3 | 32.2 | 0.00 | 1.27 | 0.13 | 55 | 1011.2 |
| 20260506150003 | 21 | 175 | 20.9 | 32.2 | 0.00 | 1.27 | 0.13 | 55 | 1011.1 |
| 20260506145503 | 21 | 175 | 17.7 | 30.6 | 0.00 | 1.27 | 0.13 | 55 | 1011.1 |
| 20260506145003 | 21 | 167 | 16.1 | 25.7 | 0.00 | 1.27 | 0.13 | 57 | 1011.0 |
| 20260506144505 | 21 | 172 | 16.1 | 25.7 | 0.00 | 1.27 | 0.13 | 57 | 1011.0 |
| 20260506144003 | 21 | 167 | 16.1 | 30.6 | 0.00 | 1.27 | 0.13 | 56 | 1010.9 |
| 20260506143714 | 21 | 166 | 16.1 | 30.6 | 0.00 | 1.27 | 0.13 | 56 | 1011.0 |
| 20260506143003 | 21 | 179 | 27.4 | 46.7 | 0.00 | 1.27 | 0.13 | 55 | 1010.9 |
| 20260506142503 | 21 | 183 | 32.2 | 46.7 | 0.00 | 1.27 | 0.13 | 53 | 1010.9 |
| 20260506142213 | 22 | 184 | 27.4 | 46.7 | 0.00 | 1.27 | 0.13 | 53 | 1011.0 |
| 20260506141503 | 21 | 183 | 25.7 | 38.6 | 0.00 | 1.27 | 0.13 | 54 | 1010.9 |
| 20260506141003 | 21 | 186 | 25.7 | 38.6 | 0.00 | 1.27 | 0.13 | 54 | 1011.1 |
| 20260506140503 | 21 | 188 | 25.7 | 41.8 | 0.00 | 1.27 | 0.13 | 55 | 1011.0 |
| 20260506140215 | 21 | 188 | 25.7 | 41.8 | 0.00 | 1.27 | 0.13 | 54 | 1011.2 |
| 20260506135503 | 22 | 190 | 22.5 | 38.6 | 0.00 | 1.27 | 0.13 | 55 | 1011.4 |
| 20260506135005 | 21 | 200 | 22.5 | 38.6 | 0.00 | 1.27 | 0.13 | 53 | 1011.3 |
| 20260506134713 | 22 | 194 | 22.5 | 37.0 | 0.00 | 1.27 | 0.13 | 54 | 1011.5 |
| 20260506134003 | 21 | 178 | 20.9 | 37.0 | 0.00 | 1.27 | 0.13 | 54 | 1011.6 |
| 20260506133503 | 21 | 177 | 24.1 | 40.2 | 0.00 | 1.27 | 0.13 | 54 | 1011.5 |
| 20260506133003 | 21 | 174 | 22.5 | 40.2 | 0.00 | 1.27 | 0.13 | 54 | 1011.5 |
| 20260506132713 | 21 | 168 | 20.9 | 33.8 | 0.00 | 1.27 | 0.13 | 54 | 1011.7 |
| 20260506132005 | 21 | 162 | 19.3 | 40.2 | 0.00 | 1.27 | 0.13 | 52 | 1011.8 |
| 20260506131503 | 21 | 167 | 17.7 | 40.2 | 0.00 | 1.27 | 0.13 | 52 | 1012.0 |
| 20260506131003 | 21 | 173 | 19.3 | 32.2 | 0.00 | 1.27 | 0.13 | 52 | 1011.9 |
| 20260506130504 | 21 | 172 | 17.7 | 33.8 | 0.00 | 1.27 | 0.13 | 52 | 1012.0 |
| 20260506130004 | 21 | 170 | 16.1 | 33.8 | 0.00 | 1.27 | 0.13 | 51 | 1012.0 |
| 20260506125503 | 21 | 172 | 19.3 | 33.8 | 0.00 | 1.27 | 0.13 | 51 | 1012.0 |
| 20260506125005 | 21 | 167 | 20.9 | 33.8 | 0.00 | 1.27 | 0.13 | 52 | 1012.1 |
| 20260506124503 | 21 | 171 | 22.5 | 40.2 | 0.00 | 1.27 | 0.13 | 52 | 1012.4 |
| 20260506124003 | 21 | 182 | 24.1 | 40.2 | 0.00 | 1.27 | 0.13 | 52 | 1012.2 |
| 20260506123503 | 21 | 187 | 25.7 | 38.6 | 0.00 | 1.27 | 0.13 | 54 | 1012.2 |
| 20260506123214 | 21 | 189 | 24.1 | 38.6 | 0.00 | 1.27 | 0.13 | 53 | 1012.3 |
| 20260506122503 | 21 | 180 | 17.7 | 37.0 | 0.00 | 1.27 | 0.13 | 54 | 1012.0 |
| 20260506122003 | 21 | 178 | 17.7 | 37.0 | 0.00 | 1.27 | 0.13 | 56 | 1012.2 |
| 20260506121503 | 21 | 188 | 17.7 | 30.6 | 0.00 | 1.27 | 0.13 | 56 | 1012.2 |
| 20260506121005 | 21 | 202 | 19.3 | 33.8 | 0.00 | 1.27 | 0.13 | 55 | 1012.1 |
| 20260506120503 | 21 | 197 | 20.9 | 33.8 | 0.00 | 1.27 | 0.13 | 56 | 1012.2 |
| 20260506120214 | 21 | 192 | 19.3 | 32.2 | 0.00 | 1.27 | 0.13 | 55 | 1012.2 |
| 20260506115503 | 21 | 184 | 22.5 | 35.4 | 0.00 | 1.27 | 0.13 | 54 | 1012.3 |
| 20260506115003 | 21 | 180 | 24.1 | 33.8 | 0.00 | 1.27 | 0.13 | 55 | 1012.2 |
| 20260506114505 | 21 | 177 | 20.9 | 33.8 | 0.00 | 1.27 | 0.13 | 56 | 1012.1 |
| 20260506114003 | 21 | 174 | 20.9 | 33.8 | 0.00 | 1.27 | 0.13 | 57 | 1012.1 |
| 20260506113505 | 21 | 181 | 20.9 | 35.4 | 0.00 | 1.27 | 0.13 | 57 | 1012.4 |
| 20260506113216 | 21 | 187 | 19.3 | 35.4 | 0.00 | 1.27 | 0.13 | 57 | 1012.4 |
| 20260506112504 | 20 | 184 | 24.1 | 38.6 | 0.00 | 1.27 | 0.13 | 60 | 1012.4 |
| 20260506112214 | 20 | 175 | 24.1 | 38.6 | 0.00 | 1.27 | 0.13 | 58 | 1012.5 |
| 20260506111503 | 20 | 161 | 17.7 | 27.4 | 0.00 | 1.27 | 0.13 | 60 | 1012.4 |
| 20260506111004 | 20 | 182 | 19.3 | 30.6 | 0.00 | 1.27 | 0.13 | 61 | 1012.8 |
| 20260506110503 | 20 | 187 | 20.9 | 33.8 | 0.00 | 1.27 | 0.13 | 62 | 1012.8 |
| 20260506110005 | 20 | 180 | 24.1 | 33.8 | 0.00 | 1.27 | 0.13 | 61 | 1012.8 |
| 20260506105504 | 19 | 177 | 20.9 | 33.8 | 0.00 | 1.27 | 0.13 | 63 | 1012.8 |
| 20260506105005 | 19 | 169 | 20.9 | 35.4 | 0.00 | 1.27 | 0.13 | 63 | 1012.8 |
| 20260506104503 | 19 | 166 | 22.5 | 35.4 | 0.00 | 1.27 | 0.13 | 63 | 1012.7 |
| 20260506104003 | 19 | 168 | 19.3 | 38.6 | 0.00 | 1.27 | 0.13 | 63 | 1012.9 |
| 20260506103503 | 19 | 176 | 17.7 | 38.6 | 0.00 | 1.27 | 0.13 | 63 | 1012.8 |
| 20260506103005 | 19 | 173 | 19.3 | 32.2 | 0.00 | 1.27 | 0.13 | 63 | 1012.9 |
| 20260506102505 | 19 | 175 | 25.7 | 43.5 | 0.00 | 1.27 | 0.13 | 63 | 1012.8 |
| 20260506102213 | 19 | 176 | 27.4 | 43.5 | 0.00 | 1.27 | 0.13 | 63 | 1012.9 |
| 20260506101503 | 19 | 189 | 22.5 | 43.5 | 0.00 | 1.27 | 0.13 | 63 | 1012.8 |
| 20260506101213 | 19 | 193 | 22.5 | 37.0 | 0.00 | 1.27 | 0.13 | 63 | 1013.1 |
| 20260506100503 | 18 | 174 | 25.7 | 37.0 | 0.00 | 1.27 | 0.13 | 63 | 1012.7 |
| 20260506100004 | 19 | 158 | 22.5 | 35.4 | 0.00 | 1.27 | 0.13 | 63 | 1012.8 |
| 20260506095505 | 19 | 160 | 19.3 | 37.0 | 0.00 | 1.27 | 0.13 | 62 | 1012.9 |
| 20260506095008 | 19 | 172 | 22.5 | 41.8 | 0.00 | 1.27 | 0.13 | 63 | 1012.8 |
| 20260506094503 | 19 | 183 | 24.1 | 41.8 | 0.00 | 1.27 | 0.13 | 62 | 1012.9 |
| 20260506094003 | 19 | 190 | 20.9 | 30.6 | 0.00 | 1.27 | 0.13 | 63 | 1013.0 |
| 20260506093503 | 19 | 186 | 22.5 | 35.4 | 0.00 | 1.27 | 0.13 | 62 | 1012.7 |
| 20260506093004 | 18 | 179 | 20.9 | 35.4 | 0.00 | 1.27 | 0.13 | 63 | 1013.0 |
| 20260506092505 | 19 | 176 | 17.7 | 30.6 | 0.00 | 1.27 | 0.13 | 63 | 1013.0 |
| 20260506092005 | 18 | 168 | 16.1 | 30.6 | 0.00 | 1.27 | 0.13 | 63 | 1012.9 |
| 20260506091503 | 18 | 165 | 14.5 | 30.6 | 0.00 | 1.27 | 0.13 | 63 | 1012.9 |
| 20260506091003 | 18 | 160 | 14.5 | 25.7 | 0.00 | 1.27 | 0.13 | 64 | 1012.9 |
| 20260506090503 | 18 | 165 | 20.9 | 35.4 | 0.00 | 1.27 | 0.13 | 63 | 1013.0 |
| 20260506090005 | 18 | 169 | 22.5 | 35.4 | 0.00 | 1.27 | 0.13 | 63 | 1013.0 |
| 20260506085504 | 18 | 170 | 19.3 | 33.8 | 0.00 | 1.27 | 0.13 | 64 | 1012.9 |
| 20260506085005 | 18 | 170 | 20.9 | 33.8 | 0.00 | 1.27 | 0.13 | 63 | 1012.9 |
| 20260506084503 | 18 | 165 | 22.5 | 37.0 | 0.00 | 1.27 | 0.13 | 64 | 1012.8 |
| 20260506084003 | 18 | 166 | 20.9 | 37.0 | 0.00 | 1.27 | 0.13 | 63 | 1013.0 |